sensor_id;sensor_type;location;lat;lon;timestamp;temperature;humidity
15535;DHT22;7869;49.264;8.596;2022-11-14T00:00:01;5.90;99.90
15535;DHT22;7869;49.264;8.596;2022-11-14T00:02:27;5.90;99.90
15535;DHT22;7869;49.264;8.596;2022-11-14T00:04:52;5.90;99.90
15535;DHT22;7869;49.264;8.596;2022-11-14T00:07:18;5.90;99.90
15535;DHT22;7869;49.264;8.596;2022-11-14T00:09:44;5.90;99.90
15535;DHT22;7869;49.264;8.596;2022-11-14T00:12:09;5.90;99.90
15535;DHT22;7869;49.264;8.596;2022-11-14T00:14:36;5.90;99.90
15535;DHT22;7869;49.264;8.596;2022-11-14T00:17:02;5.90;99.90
15535;DHT22;7869;49.264;8.596;2022-11-14T00:19:28;5.90;99.90
15535;DHT22;7869;49.264;8.596;2022-11-14T00:21:53;5.90;99.90
15535;DHT22;7869;49.264;8.596;2022-11-14T00:24:19;5.80;99.90
15535;DHT22;7869;49.264;8.596;2022-11-14T00:26:45;5.90;99.90
15535;DHT22;7869;49.264;8.596;2022-11-14T00:29:11;5.80;99.90
15535;DHT22;7869;49.264;8.596;2022-11-14T00:31:37;5.80;99.90
15535;DHT22;7869;49.264;8.596;2022-11-14T00:34:03;5.90;99.90
15535;DHT22;7869;49.264;8.596;2022-11-14T00:36:29;5.80;99.90
15535;DHT22;7869;49.264;8.596;2022-11-14T00:38:54;5.90;99.90
15535;DHT22;7869;49.264;8.596;2022-11-14T00:41:20;5.80;99.90
15535;DHT22;7869;49.264;8.596;2022-11-14T00:43:46;5.80;99.90
15535;DHT22;7869;49.264;8.596;2022-11-14T00:46:11;5.90;99.90
15535;DHT22;7869;49.264;8.596;2022-11-14T00:48:37;5.90;99.90
15535;DHT22;7869;49.264;8.596;2022-11-14T00:51:02;5.90;99.90
15535;DHT22;7869;49.264;8.596;2022-11-14T00:53:28;5.90;99.90
15535;DHT22;7869;49.264;8.596;2022-11-14T00:55:54;5.90;99.90
15535;DHT22;7869;49.264;8.596;2022-11-14T00:58:19;5.90;99.90
15535;DHT22;7869;49.264;8.596;2022-11-14T01:00:45;5.90;99.90
15535;DHT22;7869;49.264;8.596;2022-11-14T01:03:10;5.90;99.90
15535;DHT22;7869;49.264;8.596;2022-11-14T01:05:40;5.90;99.90
15535;DHT22;7869;49.264;8.596;2022-11-14T01:08:06;5.90;99.90
15535;DHT22;7869;49.264;8.596;2022-11-14T01:10:32;5.90;99.90
15535;DHT22;7869;49.264;8.596;2022-11-14T01:12:57;5.90;99.90
15535;DHT22;7869;49.264;8.596;2022-11-14T01:15:23;5.90;99.90
15535;DHT22;7869;49.264;8.596;2022-11-14T01:17:48;5.90;99.90
15535;DHT22;7869;49.264;8.596;2022-11-14T01:20:15;5.90;99.90
15535;DHT22;7869;49.264;8.596;2022-11-14T01:22:41;5.90;99.90
15535;DHT22;7869;49.264;8.596;2022-11-14T01:25:07;5.90;99.90
15535;DHT22;7869;49.264;8.596;2022-11-14T01:27:32;5.90;99.90
15535;DHT22;7869;49.264;8.596;2022-11-14T01:29:58;5.90;99.90
15535;DHT22;7869;49.264;8.596;2022-11-14T01:32:25;5.90;99.90
15535;DHT22;7869;49.264;8.596;2022-11-14T01:34:50;5.90;99.90
15535;DHT22;7869;49.264;8.596;2022-11-14T01:37:16;5.90;99.90
15535;DHT22;7869;49.264;8.596;2022-11-14T01:39:41;5.90;99.90
15535;DHT22;7869;49.264;8.596;2022-11-14T01:42:07;5.90;99.90
15535;DHT22;7869;49.264;8.596;2022-11-14T01:47:07;6.00;99.90
15535;DHT22;7869;49.264;8.596;2022-11-14T01:49:37;5.90;99.90
15535;DHT22;7869;49.264;8.596;2022-11-14T01:52:13;5.90;99.90
15535;DHT22;7869;49.264;8.596;2022-11-14T01:54:44;6.00;99.90
15535;DHT22;7869;49.264;8.596;2022-11-14T01:57:13;5.90;99.90
15535;DHT22;7869;49.264;8.596;2022-11-14T01:59:42;5.90;99.90
15535;DHT22;7869;49.264;8.596;2022-11-14T02:02:19;5.90;99.90
15535;DHT22;7869;49.264;8.596;2022-11-14T02:05:05;5.90;99.90
15535;DHT22;7869;49.264;8.596;2022-11-14T02:07:33;5.90;99.90
15535;DHT22;7869;49.264;8.596;2022-11-14T02:10:04;5.90;99.90
15535;DHT22;7869;49.264;8.596;2022-11-14T02:12:30;5.90;99.90
15535;DHT22;7869;49.264;8.596;2022-11-14T02:14:56;5.90;99.90
15535;DHT22;7869;49.264;8.596;2022-11-14T02:17:24;5.90;99.90
15535;DHT22;7869;49.264;8.596;2022-11-14T02:20:14;5.90;99.90
15535;DHT22;7869;49.264;8.596;2022-11-14T02:22:38;5.80;99.90
15535;DHT22;7869;49.264;8.596;2022-11-14T02:25:06;5.80;99.90
15535;DHT22;7869;49.264;8.596;2022-11-14T02:27:32;5.80;99.90
15535;DHT22;7869;49.264;8.596;2022-11-14T02:30:05;5.80;99.90
15535;DHT22;7869;49.264;8.596;2022-11-14T02:32:31;5.80;99.90
15535;DHT22;7869;49.264;8.596;2022-11-14T02:34:56;5.80;99.90
15535;DHT22;7869;49.264;8.596;2022-11-14T02:37:22;5.80;99.90
15535;DHT22;7869;49.264;8.596;2022-11-14T02:39:47;5.80;99.90
15535;DHT22;7869;49.264;8.596;2022-11-14T02:42:13;5.80;99.90
15535;DHT22;7869;49.264;8.596;2022-11-14T02:44:39;5.80;99.90
15535;DHT22;7869;49.264;8.596;2022-11-14T02:47:04;5.70;99.90
15535;DHT22;7869;49.264;8.596;2022-11-14T02:49:30;5.80;99.90
15535;DHT22;7869;49.264;8.596;2022-11-14T02:51:56;5.70;99.90
15535;DHT22;7869;49.264;8.596;2022-11-14T02:54:21;5.70;99.90
15535;DHT22;7869;49.264;8.596;2022-11-14T02:56:47;5.60;99.90
15535;DHT22;7869;49.264;8.596;2022-11-14T02:59:12;5.50;99.90
15535;DHT22;7869;49.264;8.596;2022-11-14T03:01:38;5.50;99.90
15535;DHT22;7869;49.264;8.596;2022-11-14T03:04:04;5.40;99.90
15535;DHT22;7869;49.264;8.596;2022-11-14T03:06:29;5.40;99.90
15535;DHT22;7869;49.264;8.596;2022-11-14T03:08:55;5.40;99.90
15535;DHT22;7869;49.264;8.596;2022-11-14T03:11:20;5.30;99.90
15535;DHT22;7869;49.264;8.596;2022-11-14T03:13:46;5.30;99.90
15535;DHT22;7869;49.264;8.596;2022-11-14T03:16:12;5.30;99.90
15535;DHT22;7869;49.264;8.596;2022-11-14T03:18:38;5.30;99.90
15535;DHT22;7869;49.264;8.596;2022-11-14T03:21:08;5.30;99.90
15535;DHT22;7869;49.264;8.596;2022-11-14T03:23:34;5.30;99.90
15535;DHT22;7869;49.264;8.596;2022-11-14T03:26:00;5.30;99.90
15535;DHT22;7869;49.264;8.596;2022-11-14T03:28:26;5.20;99.90
15535;DHT22;7869;49.264;8.596;2022-11-14T03:30:52;5.20;99.90
15535;DHT22;7869;49.264;8.596;2022-11-14T03:33:18;5.20;99.90
15535;DHT22;7869;49.264;8.596;2022-11-14T03:35:43;5.20;99.90
15535;DHT22;7869;49.264;8.596;2022-11-14T03:38:09;5.20;99.90
15535;DHT22;7869;49.264;8.596;2022-11-14T03:40:38;5.20;99.90
15535;DHT22;7869;49.264;8.596;2022-11-14T03:43:03;5.20;99.90
15535;DHT22;7869;49.264;8.596;2022-11-14T03:45:29;5.30;99.90
15535;DHT22;7869;49.264;8.596;2022-11-14T03:47:54;5.30;99.90
15535;DHT22;7869;49.264;8.596;2022-11-14T03:50:20;5.30;99.90
15535;DHT22;7869;49.264;8.596;2022-11-14T03:52:48;5.30;99.90
15535;DHT22;7869;49.264;8.596;2022-11-14T03:55:13;5.30;99.90
15535;DHT22;7869;49.264;8.596;2022-11-14T03:57:39;5.30;99.90
15535;DHT22;7869;49.264;8.596;2022-11-14T04:00:05;5.20;99.90
15535;DHT22;7869;49.264;8.596;2022-11-14T04:02:31;5.20;99.90
15535;DHT22;7869;49.264;8.596;2022-11-14T04:04:56;5.20;99.90
15535;DHT22;7869;49.264;8.596;2022-11-14T04:07:22;5.20;99.90
15535;DHT22;7869;49.264;8.596;2022-11-14T04:09:47;5.20;99.90
15535;DHT22;7869;49.264;8.596;2022-11-14T04:12:13;5.20;99.90
15535;DHT22;7869;49.264;8.596;2022-11-14T04:14:38;5.30;99.90
15535;DHT22;7869;49.264;8.596;2022-11-14T04:17:04;5.30;99.90
15535;DHT22;7869;49.264;8.596;2022-11-14T04:19:29;5.30;99.90
15535;DHT22;7869;49.264;8.596;2022-11-14T04:21:55;5.30;99.90
15535;DHT22;7869;49.264;8.596;2022-11-14T04:24:20;5.30;99.90
15535;DHT22;7869;49.264;8.596;2022-11-14T04:26:46;5.30;99.90
15535;DHT22;7869;49.264;8.596;2022-11-14T04:29:11;5.40;99.90
15535;DHT22;7869;49.264;8.596;2022-11-14T04:31:37;5.30;99.90
15535;DHT22;7869;49.264;8.596;2022-11-14T04:34:02;5.30;99.90
15535;DHT22;7869;49.264;8.596;2022-11-14T04:36:28;5.40;99.90
15535;DHT22;7869;49.264;8.596;2022-11-14T04:38:53;5.40;99.90
15535;DHT22;7869;49.264;8.596;2022-11-14T04:41:19;5.40;99.90
15535;DHT22;7869;49.264;8.596;2022-11-14T04:43:44;5.40;99.90
15535;DHT22;7869;49.264;8.596;2022-11-14T04:46:10;5.40;99.90
15535;DHT22;7869;49.264;8.596;2022-11-14T04:48:35;5.40;99.90
15535;DHT22;7869;49.264;8.596;2022-11-14T04:51:01;5.40;99.90
15535;DHT22;7869;49.264;8.596;2022-11-14T04:53:26;5.40;99.90
15535;DHT22;7869;49.264;8.596;2022-11-14T04:55:52;5.40;99.90
15535;DHT22;7869;49.264;8.596;2022-11-14T04:58:17;5.40;99.90
15535;DHT22;7869;49.264;8.596;2022-11-14T05:00:43;5.40;99.90
15535;DHT22;7869;49.264;8.596;2022-11-14T05:03:09;5.40;99.90
15535;DHT22;7869;49.264;8.596;2022-11-14T05:05:34;5.40;99.90
15535;DHT22;7869;49.264;8.596;2022-11-14T05:08:00;5.40;99.90
15535;DHT22;7869;49.264;8.596;2022-11-14T05:10:25;5.40;99.90
15535;DHT22;7869;49.264;8.596;2022-11-14T05:12:54;5.50;99.90
15535;DHT22;7869;49.264;8.596;2022-11-14T05:15:19;5.40;99.90
15535;DHT22;7869;49.264;8.596;2022-11-14T05:17:45;5.40;99.90
15535;DHT22;7869;49.264;8.596;2022-11-14T05:20:11;5.40;99.90
15535;DHT22;7869;49.264;8.596;2022-11-14T05:22:37;5.40;99.90
15535;DHT22;7869;49.264;8.596;2022-11-14T05:25:02;5.40;99.90
15535;DHT22;7869;49.264;8.596;2022-11-14T05:27:28;5.40;99.90
15535;DHT22;7869;49.264;8.596;2022-11-14T05:29:54;5.40;99.90
15535;DHT22;7869;49.264;8.596;2022-11-14T05:32:20;5.40;99.90
15535;DHT22;7869;49.264;8.596;2022-11-14T05:34:46;5.30;99.90
15535;DHT22;7869;49.264;8.596;2022-11-14T05:37:11;5.40;99.90
15535;DHT22;7869;49.264;8.596;2022-11-14T05:39:37;5.40;99.90
15535;DHT22;7869;49.264;8.596;2022-11-14T05:42:02;5.30;99.90
15535;DHT22;7869;49.264;8.596;2022-11-14T05:44:28;5.30;99.90
15535;DHT22;7869;49.264;8.596;2022-11-14T05:46:54;5.30;99.90
15535;DHT22;7869;49.264;8.596;2022-11-14T05:49:19;5.20;99.90
15535;DHT22;7869;49.264;8.596;2022-11-14T05:51:45;5.20;99.90
15535;DHT22;7869;49.264;8.596;2022-11-14T05:54:10;5.30;99.90
15535;DHT22;7869;49.264;8.596;2022-11-14T05:56:36;5.20;99.90
15535;DHT22;7869;49.264;8.596;2022-11-14T05:59:01;5.20;99.90
15535;DHT22;7869;49.264;8.596;2022-11-14T06:01:27;5.10;99.90
15535;DHT22;7869;49.264;8.596;2022-11-14T06:03:52;5.10;99.90
15535;DHT22;7869;49.264;8.596;2022-11-14T06:06:21;5.10;99.90
15535;DHT22;7869;49.264;8.596;2022-11-14T06:08:47;5.10;99.90
15535;DHT22;7869;49.264;8.596;2022-11-14T06:11:20;5.10;99.90
15535;DHT22;7869;49.264;8.596;2022-11-14T06:13:45;5.10;99.90
15535;DHT22;7869;49.264;8.596;2022-11-14T06:16:13;5.10;99.90
15535;DHT22;7869;49.264;8.596;2022-11-14T06:18:40;5.10;99.90
15535;DHT22;7869;49.264;8.596;2022-11-14T06:21:11;5.10;99.90
15535;DHT22;7869;49.264;8.596;2022-11-14T06:23:37;5.00;99.90
15535;DHT22;7869;49.264;8.596;2022-11-14T06:26:05;5.10;99.90
15535;DHT22;7869;49.264;8.596;2022-11-14T06:28:31;5.10;99.90
15535;DHT22;7869;49.264;8.596;2022-11-14T06:30:58;5.10;99.90
15535;DHT22;7869;49.264;8.596;2022-11-14T06:33:24;5.10;99.90
15535;DHT22;7869;49.264;8.596;2022-11-14T06:35:50;5.10;99.90
15535;DHT22;7869;49.264;8.596;2022-11-14T06:38:15;5.10;99.90
15535;DHT22;7869;49.264;8.596;2022-11-14T06:40:41;5.10;99.90
15535;DHT22;7869;49.264;8.596;2022-11-14T06:43:06;5.10;99.90
15535;DHT22;7869;49.264;8.596;2022-11-14T06:45:32;5.10;99.90
15535;DHT22;7869;49.264;8.596;2022-11-14T06:47:58;5.10;99.90
15535;DHT22;7869;49.264;8.596;2022-11-14T06:50:24;5.20;99.90
15535;DHT22;7869;49.264;8.596;2022-11-14T06:52:50;5.20;99.90
15535;DHT22;7869;49.264;8.596;2022-11-14T06:55:16;5.20;99.90
15535;DHT22;7869;49.264;8.596;2022-11-14T06:57:41;5.30;99.90
15535;DHT22;7869;49.264;8.596;2022-11-14T07:00:07;5.30;99.90
15535;DHT22;7869;49.264;8.596;2022-11-14T07:02:33;5.30;99.90
15535;DHT22;7869;49.264;8.596;2022-11-14T07:04:58;5.30;99.90
15535;DHT22;7869;49.264;8.596;2022-11-14T07:07:24;5.20;99.90
15535;DHT22;7869;49.264;8.596;2022-11-14T07:09:49;5.20;99.90
15535;DHT22;7869;49.264;8.596;2022-11-14T07:12:15;5.20;99.90
15535;DHT22;7869;49.264;8.596;2022-11-14T07:14:40;5.30;99.90
15535;DHT22;7869;49.264;8.596;2022-11-14T07:17:06;5.20;99.90
15535;DHT22;7869;49.264;8.596;2022-11-14T07:19:31;5.10;99.90
15535;DHT22;7869;49.264;8.596;2022-11-14T07:21:57;5.10;99.90
15535;DHT22;7869;49.264;8.596;2022-11-14T07:24:23;5.00;99.90
15535;DHT22;7869;49.264;8.596;2022-11-14T07:26:48;5.00;99.90
15535;DHT22;7869;49.264;8.596;2022-11-14T07:29:14;5.00;99.90
15535;DHT22;7869;49.264;8.596;2022-11-14T07:31:39;5.00;99.90
15535;DHT22;7869;49.264;8.596;2022-11-14T07:34:05;4.90;99.90
15535;DHT22;7869;49.264;8.596;2022-11-14T07:36:30;4.90;99.90
15535;DHT22;7869;49.264;8.596;2022-11-14T07:38:56;4.90;99.90
15535;DHT22;7869;49.264;8.596;2022-11-14T07:41:22;4.90;99.90
15535;DHT22;7869;49.264;8.596;2022-11-14T07:43:47;4.90;99.90
15535;DHT22;7869;49.264;8.596;2022-11-14T07:46:15;5.00;99.90
15535;DHT22;7869;49.264;8.596;2022-11-14T07:48:42;5.00;99.90
15535;DHT22;7869;49.264;8.596;2022-11-14T07:51:13;5.10;99.90
15535;DHT22;7869;49.264;8.596;2022-11-14T07:53:38;5.20;99.90
15535;DHT22;7869;49.264;8.596;2022-11-14T07:56:06;5.30;99.90
15535;DHT22;7869;49.264;8.596;2022-11-14T07:58:36;5.30;99.90
15535;DHT22;7869;49.264;8.596;2022-11-14T08:01:03;5.40;99.90
15535;DHT22;7869;49.264;8.596;2022-11-14T08:03:29;5.50;99.90
15535;DHT22;7869;49.264;8.596;2022-11-14T08:06:03;5.60;99.90
15535;DHT22;7869;49.264;8.596;2022-11-14T08:08:29;5.70;99.90
15535;DHT22;7869;49.264;8.596;2022-11-14T08:10:58;5.80;99.90
15535;DHT22;7869;49.264;8.596;2022-11-14T08:13:25;5.90;99.90
15535;DHT22;7869;49.264;8.596;2022-11-14T08:15:51;6.00;99.90
15535;DHT22;7869;49.264;8.596;2022-11-14T08:18:16;6.00;99.90
15535;DHT22;7869;49.264;8.596;2022-11-14T08:20:42;6.00;99.90
15535;DHT22;7869;49.264;8.596;2022-11-14T08:23:09;6.10;99.90
15535;DHT22;7869;49.264;8.596;2022-11-14T08:25:35;6.10;99.90
15535;DHT22;7869;49.264;8.596;2022-11-14T08:28:01;6.20;99.90
15535;DHT22;7869;49.264;8.596;2022-11-14T08:30:26;6.30;99.90
15535;DHT22;7869;49.264;8.596;2022-11-14T08:32:52;6.30;99.90
15535;DHT22;7869;49.264;8.596;2022-11-14T08:35:18;6.40;99.90
15535;DHT22;7869;49.264;8.596;2022-11-14T08:37:44;6.50;99.90
15535;DHT22;7869;49.264;8.596;2022-11-14T08:40:10;6.50;99.90
15535;DHT22;7869;49.264;8.596;2022-11-14T08:42:36;6.60;99.90
15535;DHT22;7869;49.264;8.596;2022-11-14T08:45:02;6.70;99.90
15535;DHT22;7869;49.264;8.596;2022-11-14T08:47:27;6.70;99.90
15535;DHT22;7869;49.264;8.596;2022-11-14T08:49:53;6.80;99.90
15535;DHT22;7869;49.264;8.596;2022-11-14T08:52:18;6.80;99.90
15535;DHT22;7869;49.264;8.596;2022-11-14T08:54:44;6.90;99.90
15535;DHT22;7869;49.264;8.596;2022-11-14T08:57:10;7.00;99.90
15535;DHT22;7869;49.264;8.596;2022-11-14T08:59:42;7.10;99.90
15535;DHT22;7869;49.264;8.596;2022-11-14T09:02:11;7.10;99.90
15535;DHT22;7869;49.264;8.596;2022-11-14T09:04:38;7.20;99.90
15535;DHT22;7869;49.264;8.596;2022-11-14T09:07:04;7.30;99.90
15535;DHT22;7869;49.264;8.596;2022-11-14T09:09:30;7.30;99.90
15535;DHT22;7869;49.264;8.596;2022-11-14T09:11:55;7.30;99.90
15535;DHT22;7869;49.264;8.596;2022-11-14T09:14:21;7.40;99.90
15535;DHT22;7869;49.264;8.596;2022-11-14T09:16:47;7.50;99.90
15535;DHT22;7869;49.264;8.596;2022-11-14T09:19:12;7.50;99.90
15535;DHT22;7869;49.264;8.596;2022-11-14T09:21:38;7.50;99.90
15535;DHT22;7869;49.264;8.596;2022-11-14T09:24:03;7.50;99.90
15535;DHT22;7869;49.264;8.596;2022-11-14T09:26:29;7.50;99.90
15535;DHT22;7869;49.264;8.596;2022-11-14T09:28:55;7.50;99.90
15535;DHT22;7869;49.264;8.596;2022-11-14T09:31:20;7.50;99.90
15535;DHT22;7869;49.264;8.596;2022-11-14T09:33:46;7.50;99.90
15535;DHT22;7869;49.264;8.596;2022-11-14T09:36:12;7.60;99.90
15535;DHT22;7869;49.264;8.596;2022-11-14T09:38:43;7.60;99.90
15535;DHT22;7869;49.264;8.596;2022-11-14T09:41:21;7.70;99.90
15535;DHT22;7869;49.264;8.596;2022-11-14T09:46:31;7.90;99.90
15535;DHT22;7869;49.264;8.596;2022-11-14T09:48:58;7.90;99.90
15535;DHT22;7869;49.264;8.596;2022-11-14T09:51:28;7.90;99.90
15535;DHT22;7869;49.264;8.596;2022-11-14T09:56:42;8.00;99.90
15535;DHT22;7869;49.264;8.596;2022-11-14T09:59:10;8.10;99.90
15535;DHT22;7869;49.264;8.596;2022-11-14T10:13:05;8.90;99.90
15535;DHT22;7869;49.264;8.596;2022-11-14T10:15:45;9.10;99.90
15535;DHT22;7869;49.264;8.596;2022-11-14T10:18:17;9.20;99.90
15535;DHT22;7869;49.264;8.596;2022-11-14T10:20:53;9.30;99.90
15535;DHT22;7869;49.264;8.596;2022-11-14T10:26:14;9.50;99.90
15535;DHT22;7869;49.264;8.596;2022-11-14T10:31:18;9.60;99.90
15535;DHT22;7869;49.264;8.596;2022-11-14T10:34:00;9.70;99.90
15535;DHT22;7869;49.264;8.596;2022-11-14T10:39:40;9.90;99.90
15535;DHT22;7869;49.264;8.596;2022-11-14T10:42:18;9.80;99.90
15535;DHT22;7869;49.264;8.596;2022-11-14T10:44:58;9.80;99.90
15535;DHT22;7869;49.264;8.596;2022-11-14T10:47:32;9.70;99.90
15535;DHT22;7869;49.264;8.596;2022-11-14T10:50:11;9.70;99.90
15535;DHT22;7869;49.264;8.596;2022-11-14T10:52:40;9.70;99.90
15535;DHT22;7869;49.264;8.596;2022-11-14T10:55:13;9.60;99.90
15535;DHT22;7869;49.264;8.596;2022-11-14T10:57:39;9.60;99.90
15535;DHT22;7869;49.264;8.596;2022-11-14T11:00:18;9.60;99.90
15535;DHT22;7869;49.264;8.596;2022-11-14T11:02:48;9.60;99.90
15535;DHT22;7869;49.264;8.596;2022-11-14T11:05:16;9.60;99.90
15535;DHT22;7869;49.264;8.596;2022-11-14T11:07:46;9.60;99.90
15535;DHT22;7869;49.264;8.596;2022-11-14T11:10:32;9.50;99.90
15535;DHT22;7869;49.264;8.596;2022-11-14T11:13:30;9.50;99.90
15535;DHT22;7869;49.264;8.596;2022-11-14T11:15:59;9.40;99.90
15535;DHT22;7869;49.264;8.596;2022-11-14T11:18:30;9.40;99.90
15535;DHT22;7869;49.264;8.596;2022-11-14T11:21:08;9.40;99.90
15535;DHT22;7869;49.264;8.596;2022-11-14T11:23:35;9.40;99.90
15535;DHT22;7869;49.264;8.596;2022-11-14T11:28:41;9.30;99.90
15535;DHT22;7869;49.264;8.596;2022-11-14T11:31:09;9.20;99.90
15535;DHT22;7869;49.264;8.596;2022-11-14T11:33:36;9.10;99.90
15535;DHT22;7869;49.264;8.596;2022-11-14T11:36:12;9.10;99.90
15535;DHT22;7869;49.264;8.596;2022-11-14T11:38:38;9.00;99.90
15535;DHT22;7869;49.264;8.596;2022-11-14T11:41:30;9.00;99.90
15535;DHT22;7869;49.264;8.596;2022-11-14T11:44:06;9.00;99.90
15535;DHT22;7869;49.264;8.596;2022-11-14T11:46:55;9.00;99.90
15535;DHT22;7869;49.264;8.596;2022-11-14T11:52:34;8.90;99.90
15535;DHT22;7869;49.264;8.596;2022-11-14T11:55:16;9.00;99.90
15535;DHT22;7869;49.264;8.596;2022-11-14T11:57:45;9.00;99.90
15535;DHT22;7869;49.264;8.596;2022-11-14T12:00:20;9.00;99.90
15535;DHT22;7869;49.264;8.596;2022-11-14T12:02:48;9.00;99.90
15535;DHT22;7869;49.264;8.596;2022-11-14T12:05:42;8.90;99.90
15535;DHT22;7869;49.264;8.596;2022-11-14T12:10:42;8.90;99.90
15535;DHT22;7869;49.264;8.596;2022-11-14T12:16:24;8.90;99.90
15535;DHT22;7869;49.264;8.596;2022-11-14T12:22:17;8.80;99.90
15535;DHT22;7869;49.264;8.596;2022-11-14T12:27:28;8.90;99.90
15535;DHT22;7869;49.264;8.596;2022-11-14T12:30:11;8.90;99.90
15535;DHT22;7869;49.264;8.596;2022-11-14T12:35:28;8.80;99.90
15535;DHT22;7869;49.264;8.596;2022-11-14T12:37:56;8.80;99.90
15535;DHT22;7869;49.264;8.596;2022-11-14T12:40:31;8.80;99.90
15535;DHT22;7869;49.264;8.596;2022-11-14T12:42:58;8.80;99.90
15535;DHT22;7869;49.264;8.596;2022-11-14T12:50:55;9.00;99.90
15535;DHT22;7869;49.264;8.596;2022-11-14T12:56:18;9.10;99.90
15535;DHT22;7869;49.264;8.596;2022-11-14T13:13:13;9.30;99.90
15535;DHT22;7869;49.264;8.596;2022-11-14T13:15:59;9.30;99.90
15535;DHT22;7869;49.264;8.596;2022-11-14T13:27:30;9.10;99.90
15535;DHT22;7869;49.264;8.596;2022-11-14T13:29:56;9.20;99.90
15535;DHT22;7869;49.264;8.596;2022-11-14T13:35:19;9.30;99.90
15535;DHT22;7869;49.264;8.596;2022-11-14T13:40:52;9.50;99.90
15535;DHT22;7869;49.264;8.596;2022-11-14T13:46:12;9.50;99.90
15535;DHT22;7869;49.264;8.596;2022-11-14T13:51:51;9.30;99.90
15535;DHT22;7869;49.264;8.596;2022-11-14T13:54:17;9.20;99.90
15535;DHT22;7869;49.264;8.596;2022-11-14T14:00:10;9.30;99.90
15535;DHT22;7869;49.264;8.596;2022-11-14T14:08:10;9.40;99.90
15535;DHT22;7869;49.264;8.596;2022-11-14T14:13:41;9.40;99.90
15535;DHT22;7869;49.264;8.596;2022-11-14T14:16:34;9.40;99.90
15535;DHT22;7869;49.264;8.596;2022-11-14T14:30:12;9.30;99.90
15535;DHT22;7869;49.264;8.596;2022-11-14T14:32:39;9.30;99.90
15535;DHT22;7869;49.264;8.596;2022-11-14T14:35:28;9.30;99.90
15535;DHT22;7869;49.264;8.596;2022-11-14T14:37:55;9.20;99.90
15535;DHT22;7869;49.264;8.596;2022-11-14T14:40:27;9.20;99.90
15535;DHT22;7869;49.264;8.596;2022-11-14T14:42:54;9.20;99.90
15535;DHT22;7869;49.264;8.596;2022-11-14T14:45:23;9.10;99.90
15535;DHT22;7869;49.264;8.596;2022-11-14T14:48:09;9.10;99.90
15535;DHT22;7869;49.264;8.596;2022-11-14T14:50:39;9.00;99.90
15535;DHT22;7869;49.264;8.596;2022-11-14T14:53:06;9.00;99.90
15535;DHT22;7869;49.264;8.596;2022-11-14T14:55:34;9.00;99.90
15535;DHT22;7869;49.264;8.596;2022-11-14T15:00:59;9.00;99.90
15535;DHT22;7869;49.264;8.596;2022-11-14T15:03:34;9.00;99.90
15535;DHT22;7869;49.264;8.596;2022-11-14T15:08:43;9.00;99.90
15535;DHT22;7869;49.264;8.596;2022-11-14T15:11:10;9.00;99.90
15535;DHT22;7869;49.264;8.596;2022-11-14T15:13:38;9.00;99.90
15535;DHT22;7869;49.264;8.596;2022-11-14T15:16:04;9.00;99.90
15535;DHT22;7869;49.264;8.596;2022-11-14T15:18:31;9.00;99.90
15535;DHT22;7869;49.264;8.596;2022-11-14T15:21:22;9.10;99.90
15535;DHT22;7869;49.264;8.596;2022-11-14T15:24:16;9.10;99.90
15535;DHT22;7869;49.264;8.596;2022-11-14T15:26:47;9.20;99.90
15535;DHT22;7869;49.264;8.596;2022-11-14T15:29:19;9.20;99.90
15535;DHT22;7869;49.264;8.596;2022-11-14T15:31:54;9.10;99.90
15535;DHT22;7869;49.264;8.596;2022-11-14T15:34:29;9.20;99.90
15535;DHT22;7869;49.264;8.596;2022-11-14T15:39:42;9.20;99.90
15535;DHT22;7869;49.264;8.596;2022-11-14T15:42:30;9.10;99.90
15535;DHT22;7869;49.264;8.596;2022-11-14T15:44:56;9.10;99.90
15535;DHT22;7869;49.264;8.596;2022-11-14T15:47:24;9.10;99.90
15535;DHT22;7869;49.264;8.596;2022-11-14T15:52:59;9.10;99.90
15535;DHT22;7869;49.264;8.596;2022-11-14T15:55:25;9.10;99.90
15535;DHT22;7869;49.264;8.596;2022-11-14T15:57:50;9.10;99.90
15535;DHT22;7869;49.264;8.596;2022-11-14T16:00:17;9.10;99.90
15535;DHT22;7869;49.264;8.596;2022-11-14T16:02:52;9.20;99.90
15535;DHT22;7869;49.264;8.596;2022-11-14T16:05:28;9.10;99.90
15535;DHT22;7869;49.264;8.596;2022-11-14T16:07:54;9.10;99.90
15535;DHT22;7869;49.264;8.596;2022-11-14T16:10:25;9.10;99.90
15535;DHT22;7869;49.264;8.596;2022-11-14T16:12:51;9.10;99.90
15535;DHT22;7869;49.264;8.596;2022-11-14T16:15:19;9.10;99.90
15535;DHT22;7869;49.264;8.596;2022-11-14T16:17:46;9.10;99.90
15535;DHT22;7869;49.264;8.596;2022-11-14T16:20:18;9.00;99.90
15535;DHT22;7869;49.264;8.596;2022-11-14T16:22:46;9.00;99.90
15535;DHT22;7869;49.264;8.596;2022-11-14T16:25:20;9.00;99.90
15535;DHT22;7869;49.264;8.596;2022-11-14T16:27:45;9.00;99.90
15535;DHT22;7869;49.264;8.596;2022-11-14T16:30:12;9.00;99.90
15535;DHT22;7869;49.264;8.596;2022-11-14T16:32:39;9.00;99.90
15535;DHT22;7869;49.264;8.596;2022-11-14T16:35:19;9.00;99.90
15535;DHT22;7869;49.264;8.596;2022-11-14T16:37:46;9.00;99.90
15535;DHT22;7869;49.264;8.596;2022-11-14T16:40:14;9.00;99.90
15535;DHT22;7869;49.264;8.596;2022-11-14T16:42:40;9.00;99.90
15535;DHT22;7869;49.264;8.596;2022-11-14T16:45:06;9.10;99.90
15535;DHT22;7869;49.264;8.596;2022-11-14T16:47:32;9.00;99.90
15535;DHT22;7869;49.264;8.596;2022-11-14T16:49:58;9.10;99.90
15535;DHT22;7869;49.264;8.596;2022-11-14T16:52:24;9.10;99.90
15535;DHT22;7869;49.264;8.596;2022-11-14T16:54:50;9.10;99.90
15535;DHT22;7869;49.264;8.596;2022-11-14T16:57:15;9.10;99.90
15535;DHT22;7869;49.264;8.596;2022-11-14T16:59:41;9.20;99.90
15535;DHT22;7869;49.264;8.596;2022-11-14T17:02:12;9.20;99.90
15535;DHT22;7869;49.264;8.596;2022-11-14T17:04:39;9.20;99.90
15535;DHT22;7869;49.264;8.596;2022-11-14T17:07:09;9.20;99.90
15535;DHT22;7869;49.264;8.596;2022-11-14T17:09:35;9.30;99.90
15535;DHT22;7869;49.264;8.596;2022-11-14T17:12:01;9.30;99.90
15535;DHT22;7869;49.264;8.596;2022-11-14T17:14:26;9.30;99.90
15535;DHT22;7869;49.264;8.596;2022-11-14T17:16:52;9.30;99.90
15535;DHT22;7869;49.264;8.596;2022-11-14T17:19:17;9.30;99.90
15535;DHT22;7869;49.264;8.596;2022-11-14T17:21:43;9.30;99.90
15535;DHT22;7869;49.264;8.596;2022-11-14T17:24:09;9.30;99.90
15535;DHT22;7869;49.264;8.596;2022-11-14T17:26:34;9.30;99.90
15535;DHT22;7869;49.264;8.596;2022-11-14T17:29:01;9.30;99.90
15535;DHT22;7869;49.264;8.596;2022-11-14T17:31:28;9.20;99.90
15535;DHT22;7869;49.264;8.596;2022-11-14T17:33:55;9.20;99.90
15535;DHT22;7869;49.264;8.596;2022-11-14T17:36:22;9.20;99.90
15535;DHT22;7869;49.264;8.596;2022-11-14T17:38:48;9.10;99.90
15535;DHT22;7869;49.264;8.596;2022-11-14T17:41:13;9.10;99.90
15535;DHT22;7869;49.264;8.596;2022-11-14T17:43:39;9.10;99.90
15535;DHT22;7869;49.264;8.596;2022-11-14T17:46:05;9.10;99.90
15535;DHT22;7869;49.264;8.596;2022-11-14T17:48:31;9.10;99.90
15535;DHT22;7869;49.264;8.596;2022-11-14T17:51:06;9.20;99.90
15535;DHT22;7869;49.264;8.596;2022-11-14T17:53:35;9.20;99.90
15535;DHT22;7869;49.264;8.596;2022-11-14T17:56:01;9.30;99.90
15535;DHT22;7869;49.264;8.596;2022-11-14T17:58:27;9.30;99.90
15535;DHT22;7869;49.264;8.596;2022-11-14T18:00:53;9.30;99.90
15535;DHT22;7869;49.264;8.596;2022-11-14T18:03:19;9.30;99.90
15535;DHT22;7869;49.264;8.596;2022-11-14T18:05:45;9.40;99.90
15535;DHT22;7869;49.264;8.596;2022-11-14T18:08:12;9.40;99.90
15535;DHT22;7869;49.264;8.596;2022-11-14T18:10:39;9.50;99.90
15535;DHT22;7869;49.264;8.596;2022-11-14T18:13:05;9.50;99.90